sensor_id;sensor_type;location;lat;lon;timestamp;P1;durP1;ratioP1;P2;durP2;ratioP2
8407;SDS011;4241;48.452;9.216;2022-07-10T00:00:26;477.43;;;214.23;;
8407;SDS011;4241;48.452;9.216;2022-07-10T00:02:53;474.10;;;209.67;;
8407;SDS011;4241;48.452;9.216;2022-07-10T00:05:23;476.90;;;214.30;;
8407;SDS011;4241;48.452;9.216;2022-07-10T00:07:50;476.97;;;212.97;;
8407;SDS011;4241;48.452;9.216;2022-07-10T00:10:17;475.97;;;214.07;;
8407;SDS011;4241;48.452;9.216;2022-07-10T00:12:45;477.37;;;213.27;;
8407;SDS011;4241;48.452;9.216;2022-07-10T00:15:13;476.07;;;211.37;;
8407;SDS011;4241;48.452;9.216;2022-07-10T00:17:40;476.37;;;212.47;;
8407;SDS011;4241;48.452;9.216;2022-07-10T00:20:08;477.13;;;214.10;;
8407;SDS011;4241;48.452;9.216;2022-07-10T00:22:37;474.77;;;210.50;;
8407;SDS011;4241;48.452;9.216;2022-07-10T00:25:05;476.03;;;209.23;;
8407;SDS011;4241;48.452;9.216;2022-07-10T00:27:33;473.87;;;202.60;;
8407;SDS011;4241;48.452;9.216;2022-07-10T00:30:00;476.77;;;213.67;;
8407;SDS011;4241;48.452;9.216;2022-07-10T00:32:28;476.07;;;211.73;;
8407;SDS011;4241;48.452;9.216;2022-07-10T00:34:55;475.77;;;210.57;;
8407;SDS011;4241;48.452;9.216;2022-07-10T00:37:22;476.43;;;209.27;;
8407;SDS011;4241;48.452;9.216;2022-07-10T00:39:50;475.47;;;208.80;;
8407;SDS011;4241;48.452;9.216;2022-07-10T00:42:17;476.40;;;211.40;;
8407;SDS011;4241;48.452;9.216;2022-07-10T00:44:44;477.10;;;209.90;;
8407;SDS011;4241;48.452;9.216;2022-07-10T00:47:11;480.50;;;213.80;;
8407;SDS011;4241;48.452;9.216;2022-07-10T00:49:39;478.83;;;211.03;;
8407;SDS011;4241;48.452;9.216;2022-07-10T00:52:06;478.20;;;211.73;;
8407;SDS011;4241;48.452;9.216;2022-07-10T00:54:34;477.60;;;209.30;;
8407;SDS011;4241;48.452;9.216;2022-07-10T00:57:04;477.33;;;208.73;;
8407;SDS011;4241;48.452;9.216;2022-07-10T00:59:33;475.80;;;206.83;;
8407;SDS011;4241;48.452;9.216;2022-07-10T01:02:00;476.67;;;207.93;;
8407;SDS011;4241;48.452;9.216;2022-07-10T01:04:27;477.07;;;206.70;;
8407;SDS011;4241;48.452;9.216;2022-07-10T01:06:55;475.53;;;202.60;;
8407;SDS011;4241;48.452;9.216;2022-07-10T01:09:22;475.07;;;205.40;;
8407;SDS011;4241;48.452;9.216;2022-07-10T01:11:49;476.40;;;207.90;;
8407;SDS011;4241;48.452;9.216;2022-07-10T01:14:17;476.53;;;207.30;;
8407;SDS011;4241;48.452;9.216;2022-07-10T01:16:45;476.80;;;207.77;;
8407;SDS011;4241;48.452;9.216;2022-07-10T01:19:12;474.50;;;203.47;;
8407;SDS011;4241;48.452;9.216;2022-07-10T01:21:40;476.23;;;205.53;;
8407;SDS011;4241;48.452;9.216;2022-07-10T01:24:08;476.80;;;203.87;;
8407;SDS011;4241;48.452;9.216;2022-07-10T01:26:36;475.60;;;203.17;;
8407;SDS011;4241;48.452;9.216;2022-07-10T01:29:07;474.47;;;202.37;;
8407;SDS011;4241;48.452;9.216;2022-07-10T01:31:35;474.30;;;199.70;;
8407;SDS011;4241;48.452;9.216;2022-07-10T01:34:02;475.07;;;200.67;;
8407;SDS011;4241;48.452;9.216;2022-07-10T01:36:33;475.17;;;202.97;;
8407;SDS011;4241;48.452;9.216;2022-07-10T01:39:02;473.77;;;200.13;;
8407;SDS011;4241;48.452;9.216;2022-07-10T01:41:29;498.47;;;225.97;;
8407;SDS011;4241;48.452;9.216;2022-07-10T01:43:56;473.93;;;198.03;;
8407;SDS011;4241;48.452;9.216;2022-07-10T01:46:23;473.87;;;198.47;;
8407;SDS011;4241;48.452;9.216;2022-07-10T01:48:50;473.20;;;198.77;;
8407;SDS011;4241;48.452;9.216;2022-07-10T01:51:18;473.90;;;200.60;;
8407;SDS011;4241;48.452;9.216;2022-07-10T01:53:45;472.73;;;197.77;;
8407;SDS011;4241;48.452;9.216;2022-07-10T01:56:14;474.40;;;200.53;;
8407;SDS011;4241;48.452;9.216;2022-07-10T01:58:41;474.27;;;196.00;;
8407;SDS011;4241;48.452;9.216;2022-07-10T02:01:08;475.37;;;199.77;;
8407;SDS011;4241;48.452;9.216;2022-07-10T02:03:36;471.93;;;195.07;;
8407;SDS011;4241;48.452;9.216;2022-07-10T02:06:20;474.87;;;198.47;;
8407;SDS011;4241;48.452;9.216;2022-07-10T02:08:47;473.50;;;194.10;;
8407;SDS011;4241;48.452;9.216;2022-07-10T02:11:15;474.90;;;201.47;;
8407;SDS011;4241;48.452;9.216;2022-07-10T02:13:42;475.50;;;197.43;;
8407;SDS011;4241;48.452;9.216;2022-07-10T02:16:09;470.80;;;190.07;;
8407;SDS011;4241;48.452;9.216;2022-07-10T02:18:36;473.47;;;194.47;;
8407;SDS011;4241;48.452;9.216;2022-07-10T02:21:05;474.23;;;192.70;;
8407;SDS011;4241;48.452;9.216;2022-07-10T02:23:32;469.30;;;187.70;;
8407;SDS011;4241;48.452;9.216;2022-07-10T02:26:00;471.83;;;190.10;;
8407;SDS011;4241;48.452;9.216;2022-07-10T02:28:28;479.10;;;196.40;;
8407;SDS011;4241;48.452;9.216;2022-07-10T02:30:55;472.60;;;194.97;;
8407;SDS011;4241;48.452;9.216;2022-07-10T02:33:22;472.53;;;194.77;;
8407;SDS011;4241;48.452;9.216;2022-07-10T02:35:49;472.57;;;195.73;;
8407;SDS011;4241;48.452;9.216;2022-07-10T02:38:16;473.03;;;192.90;;
8407;SDS011;4241;48.452;9.216;2022-07-10T02:40:43;473.17;;;196.03;;
8407;SDS011;4241;48.452;9.216;2022-07-10T02:43:10;472.57;;;193.93;;
8407;SDS011;4241;48.452;9.216;2022-07-10T02:45:38;472.70;;;192.20;;
8407;SDS011;4241;48.452;9.216;2022-07-10T02:48:05;470.90;;;187.60;;
8407;SDS011;4241;48.452;9.216;2022-07-10T02:50:32;471.17;;;189.77;;
8407;SDS011;4241;48.452;9.216;2022-07-10T02:52:59;470.10;;;189.10;;
8407;SDS011;4241;48.452;9.216;2022-07-10T02:55:26;469.80;;;190.20;;
8407;SDS011;4241;48.452;9.216;2022-07-10T02:57:52;470.67;;;189.30;;
8407;SDS011;4241;48.452;9.216;2022-07-10T03:00:20;473.37;;;192.27;;
8407;SDS011;4241;48.452;9.216;2022-07-10T03:02:48;470.27;;;186.90;;
8407;SDS011;4241;48.452;9.216;2022-07-10T03:05:15;471.07;;;186.27;;
8407;SDS011;4241;48.452;9.216;2022-07-10T03:07:41;471.20;;;190.80;;
8407;SDS011;4241;48.452;9.216;2022-07-10T03:10:08;469.50;;;187.97;;
8407;SDS011;4241;48.452;9.216;2022-07-10T03:12:35;472.80;;;191.30;;
8407;SDS011;4241;48.452;9.216;2022-07-10T03:15:03;471.53;;;191.00;;
8407;SDS011;4241;48.452;9.216;2022-07-10T03:17:31;471.03;;;189.73;;
8407;SDS011;4241;48.452;9.216;2022-07-10T03:19:59;470.20;;;188.27;;
8407;SDS011;4241;48.452;9.216;2022-07-10T03:22:26;471.07;;;189.03;;
8407;SDS011;4241;48.452;9.216;2022-07-10T03:24:53;470.80;;;189.47;;
8407;SDS011;4241;48.452;9.216;2022-07-10T03:27:20;472.97;;;189.40;;
8407;SDS011;4241;48.452;9.216;2022-07-10T03:29:47;469.73;;;186.83;;
8407;SDS011;4241;48.452;9.216;2022-07-10T03:32:13;470.97;;;189.37;;
8407;SDS011;4241;48.452;9.216;2022-07-10T03:34:40;470.43;;;189.70;;
8407;SDS011;4241;48.452;9.216;2022-07-10T03:37:09;470.30;;;189.13;;
8407;SDS011;4241;48.452;9.216;2022-07-10T03:39:36;469.97;;;185.17;;
8407;SDS011;4241;48.452;9.216;2022-07-10T03:42:03;469.70;;;187.63;;
8407;SDS011;4241;48.452;9.216;2022-07-10T03:44:31;471.93;;;192.97;;
8407;SDS011;4241;48.452;9.216;2022-07-10T03:46:58;471.33;;;190.90;;
8407;SDS011;4241;48.452;9.216;2022-07-10T03:49:25;469.70;;;189.37;;
8407;SDS011;4241;48.452;9.216;2022-07-10T03:51:51;468.17;;;187.07;;
8407;SDS011;4241;48.452;9.216;2022-07-10T03:54:20;469.77;;;189.30;;
8407;SDS011;4241;48.452;9.216;2022-07-10T03:56:47;469.70;;;188.87;;
8407;SDS011;4241;48.452;9.216;2022-07-10T03:59:32;468.93;;;189.17;;
8407;SDS011;4241;48.452;9.216;2022-07-10T04:01:58;468.73;;;188.23;;
8407;SDS011;4241;48.452;9.216;2022-07-10T04:04:25;469.70;;;189.40;;
8407;SDS011;4241;48.452;9.216;2022-07-10T04:06:52;469.10;;;189.80;;
8407;SDS011;4241;48.452;9.216;2022-07-10T04:09:21;470.83;;;190.80;;
8407;SDS011;4241;48.452;9.216;2022-07-10T04:11:47;468.20;;;188.30;;
8407;SDS011;4241;48.452;9.216;2022-07-10T04:14:14;467.93;;;188.50;;
8407;SDS011;4241;48.452;9.216;2022-07-10T04:16:41;471.43;;;193.27;;
8407;SDS011;4241;48.452;9.216;2022-07-10T04:19:08;471.17;;;193.33;;
8407;SDS011;4241;48.452;9.216;2022-07-10T04:21:35;469.73;;;190.67;;
8407;SDS011;4241;48.452;9.216;2022-07-10T04:24:02;469.07;;;188.97;;
8407;SDS011;4241;48.452;9.216;2022-07-10T04:26:30;468.53;;;188.53;;
8407;SDS011;4241;48.452;9.216;2022-07-10T04:28:57;467.03;;;186.00;;
8407;SDS011;4241;48.452;9.216;2022-07-10T04:31:24;470.40;;;190.70;;
8407;SDS011;4241;48.452;9.216;2022-07-10T04:33:50;467.93;;;187.93;;
8407;SDS011;4241;48.452;9.216;2022-07-10T04:36:17;470.07;;;190.73;;
8407;SDS011;4241;48.452;9.216;2022-07-10T04:38:44;469.13;;;189.30;;
8407;SDS011;4241;48.452;9.216;2022-07-10T04:41:11;469.53;;;188.00;;
8407;SDS011;4241;48.452;9.216;2022-07-10T04:43:39;469.70;;;188.23;;
8407;SDS011;4241;48.452;9.216;2022-07-10T04:46:06;469.20;;;189.03;;
8407;SDS011;4241;48.452;9.216;2022-07-10T04:48:33;474.67;;;194.50;;
8407;SDS011;4241;48.452;9.216;2022-07-10T04:50:59;466.87;;;185.33;;
8407;SDS011;4241;48.452;9.216;2022-07-10T04:53:29;469.63;;;187.00;;
8407;SDS011;4241;48.452;9.216;2022-07-10T04:55:56;470.60;;;191.77;;
8407;SDS011;4241;48.452;9.216;2022-07-10T04:58:23;474.87;;;191.63;;
8407;SDS011;4241;48.452;9.216;2022-07-10T05:00:51;470.60;;;194.60;;
8407;SDS011;4241;48.452;9.216;2022-07-10T05:03:18;470.63;;;192.50;;
8407;SDS011;4241;48.452;9.216;2022-07-10T05:05:45;470.93;;;194.10;;
8407;SDS011;4241;48.452;9.216;2022-07-10T05:08:13;473.30;;;199.13;;
8407;SDS011;4241;48.452;9.216;2022-07-10T05:10:39;471.67;;;196.90;;
8407;SDS011;4241;48.452;9.216;2022-07-10T05:13:06;470.50;;;194.13;;
8407;SDS011;4241;48.452;9.216;2022-07-10T05:15:33;474.43;;;197.57;;
8407;SDS011;4241;48.452;9.216;2022-07-10T05:18:01;472.77;;;195.77;;
8407;SDS011;4241;48.452;9.216;2022-07-10T05:20:28;469.80;;;189.87;;
8407;SDS011;4241;48.452;9.216;2022-07-10T05:22:55;469.07;;;189.43;;
8407;SDS011;4241;48.452;9.216;2022-07-10T05:25:22;470.97;;;193.77;;
8407;SDS011;4241;48.452;9.216;2022-07-10T05:27:51;470.60;;;190.30;;
8407;SDS011;4241;48.452;9.216;2022-07-10T05:30:18;468.57;;;189.17;;
8407;SDS011;4241;48.452;9.216;2022-07-10T05:32:45;468.90;;;190.57;;
8407;SDS011;4241;48.452;9.216;2022-07-10T05:35:14;468.33;;;188.40;;
8407;SDS011;4241;48.452;9.216;2022-07-10T05:37:41;467.50;;;183.40;;
8407;SDS011;4241;48.452;9.216;2022-07-10T05:40:08;469.57;;;188.97;;
8407;SDS011;4241;48.452;9.216;2022-07-10T05:42:36;469.00;;;189.87;;
8407;SDS011;4241;48.452;9.216;2022-07-10T05:45:03;469.03;;;188.30;;
8407;SDS011;4241;48.452;9.216;2022-07-10T05:47:31;468.63;;;187.30;;
8407;SDS011;4241;48.452;9.216;2022-07-10T05:49:59;468.83;;;187.63;;
8407;SDS011;4241;48.452;9.216;2022-07-10T05:52:27;466.40;;;183.00;;
8407;SDS011;4241;48.452;9.216;2022-07-10T05:54:55;468.50;;;186.83;;
8407;SDS011;4241;48.452;9.216;2022-07-10T05:57:22;469.60;;;189.33;;
8407;SDS011;4241;48.452;9.216;2022-07-10T05:59:49;469.20;;;188.57;;
8407;SDS011;4241;48.452;9.216;2022-07-10T06:02:17;468.27;;;186.50;;
8407;SDS011;4241;48.452;9.216;2022-07-10T06:04:44;467.47;;;186.13;;
8407;SDS011;4241;48.452;9.216;2022-07-10T06:07:11;467.30;;;183.13;;
8407;SDS011;4241;48.452;9.216;2022-07-10T06:09:39;467.37;;;186.67;;
8407;SDS011;4241;48.452;9.216;2022-07-10T06:12:07;466.17;;;183.53;;
8407;SDS011;4241;48.452;9.216;2022-07-10T06:14:34;470.77;;;191.97;;
8407;SDS011;4241;48.452;9.216;2022-07-10T06:17:01;470.10;;;189.60;;
8407;SDS011;4241;48.452;9.216;2022-07-10T06:19:28;468.90;;;189.63;;
8407;SDS011;4241;48.452;9.216;2022-07-10T06:21:54;474.83;;;196.87;;
8407;SDS011;4241;48.452;9.216;2022-07-10T06:24:35;475.90;;;199.80;;
8407;SDS011;4241;48.452;9.216;2022-07-10T06:27:04;473.20;;;194.90;;
8407;SDS011;4241;48.452;9.216;2022-07-10T06:29:31;472.93;;;193.43;;
8407;SDS011;4241;48.452;9.216;2022-07-10T06:31:58;470.17;;;192.43;;
8407;SDS011;4241;48.452;9.216;2022-07-10T06:34:25;468.90;;;191.20;;
8407;SDS011;4241;48.452;9.216;2022-07-10T06:36:51;471.50;;;193.17;;
8407;SDS011;4241;48.452;9.216;2022-07-10T06:39:18;469.93;;;190.07;;
8407;SDS011;4241;48.452;9.216;2022-07-10T06:41:45;472.87;;;193.97;;
8407;SDS011;4241;48.452;9.216;2022-07-10T06:44:13;471.60;;;192.23;;
8407;SDS011;4241;48.452;9.216;2022-07-10T06:46:40;471.43;;;194.43;;
8407;SDS011;4241;48.452;9.216;2022-07-10T06:49:27;468.67;;;188.33;;
8407;SDS011;4241;48.452;9.216;2022-07-10T06:51:53;469.43;;;192.27;;
8407;SDS011;4241;48.452;9.216;2022-07-10T06:54:20;469.07;;;191.40;;
8407;SDS011;4241;48.452;9.216;2022-07-10T06:56:47;469.67;;;191.07;;
8407;SDS011;4241;48.452;9.216;2022-07-10T06:59:15;468.70;;;189.63;;
8407;SDS011;4241;48.452;9.216;2022-07-10T07:01:42;469.93;;;190.87;;
8407;SDS011;4241;48.452;9.216;2022-07-10T07:04:09;470.70;;;191.53;;
8407;SDS011;4241;48.452;9.216;2022-07-10T07:06:36;470.30;;;191.97;;
8407;SDS011;4241;48.452;9.216;2022-07-10T07:09:03;470.53;;;193.50;;
8407;SDS011;4241;48.452;9.216;2022-07-10T07:11:30;469.93;;;190.73;;
8407;SDS011;4241;48.452;9.216;2022-07-10T07:13:56;468.53;;;190.73;;
8407;SDS011;4241;48.452;9.216;2022-07-10T07:16:25;471.70;;;196.73;;
8407;SDS011;4241;48.452;9.216;2022-07-10T07:19:03;472.57;;;197.03;;
8407;SDS011;4241;48.452;9.216;2022-07-10T07:21:31;473.07;;;200.40;;
8407;SDS011;4241;48.452;9.216;2022-07-10T07:24:15;472.00;;;196.03;;
8407;SDS011;4241;48.452;9.216;2022-07-10T07:26:43;471.57;;;199.27;;
8407;SDS011;4241;48.452;9.216;2022-07-10T07:29:12;473.33;;;199.63;;
8407;SDS011;4241;48.452;9.216;2022-07-10T07:31:40;473.93;;;200.87;;
8407;SDS011;4241;48.452;9.216;2022-07-10T07:34:07;472.80;;;199.10;;
8407;SDS011;4241;48.452;9.216;2022-07-10T07:36:34;472.60;;;198.07;;
8407;SDS011;4241;48.452;9.216;2022-07-10T07:39:02;471.00;;;196.83;;
8407;SDS011;4241;48.452;9.216;2022-07-10T07:41:29;471.50;;;196.90;;
8407;SDS011;4241;48.452;9.216;2022-07-10T07:43:56;470.03;;;196.30;;
8407;SDS011;4241;48.452;9.216;2022-07-10T07:46:23;473.10;;;197.40;;
8407;SDS011;4241;48.452;9.216;2022-07-10T07:48:51;470.77;;;196.17;;
8407;SDS011;4241;48.452;9.216;2022-07-10T07:51:18;473.37;;;202.27;;
8407;SDS011;4241;48.452;9.216;2022-07-10T07:53:45;473.60;;;201.23;;
8407;SDS011;4241;48.452;9.216;2022-07-10T07:56:12;472.50;;;201.77;;
8407;SDS011;4241;48.452;9.216;2022-07-10T07:58:39;473.60;;;200.80;;
8407;SDS011;4241;48.452;9.216;2022-07-10T08:01:06;475.53;;;208.40;;
8407;SDS011;4241;48.452;9.216;2022-07-10T08:03:32;474.97;;;210.23;;
8407;SDS011;4241;48.452;9.216;2022-07-10T08:06:01;476.93;;;212.20;;
8407;SDS011;4241;48.452;9.216;2022-07-10T08:08:28;483.57;;;218.80;;
8407;SDS011;4241;48.452;9.216;2022-07-10T08:10:55;478.57;;;216.63;;
8407;SDS011;4241;48.452;9.216;2022-07-10T08:13:22;479.73;;;219.43;;
8407;SDS011;4241;48.452;9.216;2022-07-10T08:15:49;476.97;;;211.97;;
8407;SDS011;4241;48.452;9.216;2022-07-10T08:18:16;480.83;;;219.07;;
8407;SDS011;4241;48.452;9.216;2022-07-10T08:20:43;477.90;;;216.10;;
8407;SDS011;4241;48.452;9.216;2022-07-10T08:23:11;478.43;;;218.70;;
8407;SDS011;4241;48.452;9.216;2022-07-10T08:25:38;479.10;;;219.90;;
8407;SDS011;4241;48.452;9.216;2022-07-10T08:28:04;479.97;;;220.40;;
8407;SDS011;4241;48.452;9.216;2022-07-10T08:30:31;479.83;;;222.10;;
8407;SDS011;4241;48.452;9.216;2022-07-10T08:32:58;481.43;;;225.37;;
8407;SDS011;4241;48.452;9.216;2022-07-10T08:35:25;482.90;;;231.83;;
8407;SDS011;4241;48.452;9.216;2022-07-10T08:37:52;484.03;;;232.80;;
8407;SDS011;4241;48.452;9.216;2022-07-10T08:40:20;483.47;;;232.17;;
8407;SDS011;4241;48.452;9.216;2022-07-10T08:42:48;481.17;;;230.27;;
8407;SDS011;4241;48.452;9.216;2022-07-10T08:45:15;482.90;;;232.23;;
8407;SDS011;4241;48.452;9.216;2022-07-10T08:47:42;481.93;;;231.43;;
8407;SDS011;4241;48.452;9.216;2022-07-10T08:50:14;481.47;;;231.07;;
8407;SDS011;4241;48.452;9.216;2022-07-10T08:52:47;481.27;;;228.73;;
8407;SDS011;4241;48.452;9.216;2022-07-10T08:55:22;480.20;;;224.43;;
8407;SDS011;4241;48.452;9.216;2022-07-10T08:57:51;480.73;;;228.57;;
8407;SDS011;4241;48.452;9.216;2022-07-10T09:00:18;483.53;;;232.30;;
8407;SDS011;4241;48.452;9.216;2022-07-10T09:02:45;483.80;;;237.13;;
8407;SDS011;4241;48.452;9.216;2022-07-10T09:05:12;485.93;;;244.40;;
8407;SDS011;4241;48.452;9.216;2022-07-10T09:07:39;486.60;;;248.87;;
8407;SDS011;4241;48.452;9.216;2022-07-10T09:10:09;487.53;;;252.73;;
8407;SDS011;4241;48.452;9.216;2022-07-10T09:15:22;489.97;;;261.50;;
8407;SDS011;4241;48.452;9.216;2022-07-10T09:17:51;490.80;;;262.97;;
8407;SDS011;4241;48.452;9.216;2022-07-10T09:20:28;486.93;;;254.80;;
8407;SDS011;4241;48.452;9.216;2022-07-10T09:22:57;491.70;;;260.40;;
8407;SDS011;4241;48.452;9.216;2022-07-10T09:25:31;488.63;;;258.80;;
8407;SDS011;4241;48.452;9.216;2022-07-10T09:28:01;490.40;;;264.97;;
8407;SDS011;4241;48.452;9.216;2022-07-10T09:30:31;491.43;;;270.23;;
8407;SDS011;4241;48.452;9.216;2022-07-10T09:33:18;492.97;;;276.93;;
8407;SDS011;4241;48.452;9.216;2022-07-10T09:38:51;494.17;;;285.53;;
8407;SDS011;4241;48.452;9.216;2022-07-10T09:41:26;496.93;;;290.60;;
8407;SDS011;4241;48.452;9.216;2022-07-10T09:43:56;494.83;;;285.37;;
8407;SDS011;4241;48.452;9.216;2022-07-10T09:46:25;494.80;;;285.27;;
8407;SDS011;4241;48.452;9.216;2022-07-10T09:49:03;495.13;;;287.13;;
8407;SDS011;4241;48.452;9.216;2022-07-10T09:51:32;492.30;;;279.70;;
8407;SDS011;4241;48.452;9.216;2022-07-10T09:54:00;494.37;;;281.00;;
8407;SDS011;4241;48.452;9.216;2022-07-10T09:56:30;492.87;;;277.97;;
8407;SDS011;4241;48.452;9.216;2022-07-10T09:59:10;490.83;;;272.17;;
8407;SDS011;4241;48.452;9.216;2022-07-10T10:01:42;489.47;;;265.87;;
8407;SDS011;4241;48.452;9.216;2022-07-10T10:04:11;488.43;;;260.10;;
8407;SDS011;4241;48.452;9.216;2022-07-10T10:06:39;487.97;;;264.57;;
8407;SDS011;4241;48.452;9.216;2022-07-10T10:09:08;491.93;;;268.87;;
8407;SDS011;4241;48.452;9.216;2022-07-10T10:11:39;492.17;;;273.33;;
8407;SDS011;4241;48.452;9.216;2022-07-10T10:14:11;493.83;;;278.37;;
8407;SDS011;4241;48.452;9.216;2022-07-10T10:16:42;492.73;;;279.33;;
8407;SDS011;4241;48.452;9.216;2022-07-10T10:19:10;495.73;;;282.73;;
8407;SDS011;4241;48.452;9.216;2022-07-10T10:21:57;494.07;;;279.00;;
8407;SDS011;4241;48.452;9.216;2022-07-10T10:24:25;493.37;;;274.90;;
8407;SDS011;4241;48.452;9.216;2022-07-10T10:26:52;491.60;;;270.33;;
8407;SDS011;4241;48.452;9.216;2022-07-10T10:29:21;489.40;;;262.30;;
8407;SDS011;4241;48.452;9.216;2022-07-10T10:31:48;488.97;;;261.30;;
8407;SDS011;4241;48.452;9.216;2022-07-10T10:34:25;488.07;;;260.60;;
8407;SDS011;4241;48.452;9.216;2022-07-10T10:37:05;491.40;;;270.13;;
8407;SDS011;4241;48.452;9.216;2022-07-10T10:39:38;491.30;;;276.07;;
8407;SDS011;4241;48.452;9.216;2022-07-10T10:42:31;495.00;;;283.53;;
8407;SDS011;4241;48.452;9.216;2022-07-10T10:48:09;493.43;;;281.93;;
8407;SDS011;4241;48.452;9.216;2022-07-10T10:50:38;493.47;;;281.97;;
8407;SDS011;4241;48.452;9.216;2022-07-10T10:53:16;492.63;;;280.00;;
8407;SDS011;4241;48.452;9.216;2022-07-10T10:58:48;494.20;;;285.13;;
8407;SDS011;4241;48.452;9.216;2022-07-10T11:01:25;495.07;;;290.43;;
8407;SDS011;4241;48.452;9.216;2022-07-10T11:04:14;496.23;;;296.40;;
8407;SDS011;4241;48.452;9.216;2022-07-10T11:06:42;494.67;;;288.87;;
8407;SDS011;4241;48.452;9.216;2022-07-10T11:09:22;495.73;;;293.73;;
8407;SDS011;4241;48.452;9.216;2022-07-10T11:11:57;495.47;;;295.10;;
8407;SDS011;4241;48.452;9.216;2022-07-10T11:14:28;498.57;;;304.73;;
8407;SDS011;4241;48.452;9.216;2022-07-10T11:16:56;500.00;;;309.43;;
8407;SDS011;4241;48.452;9.216;2022-07-10T11:19:25;500.07;;;314.10;;
8407;SDS011;4241;48.452;9.216;2022-07-10T11:25:07;499.13;;;312.83;;
8407;SDS011;4241;48.452;9.216;2022-07-10T11:27:54;499.50;;;316.20;;
8407;SDS011;4241;48.452;9.216;2022-07-10T11:30:42;501.93;;;320.10;;
8407;SDS011;4241;48.452;9.216;2022-07-10T11:33:14;498.57;;;312.97;;
8407;SDS011;4241;48.452;9.216;2022-07-10T11:35:44;501.03;;;321.47;;
8407;SDS011;4241;48.452;9.216;2022-07-10T11:38:17;503.33;;;323.37;;
8407;SDS011;4241;48.452;9.216;2022-07-10T11:40:45;500.57;;;322.33;;
8407;SDS011;4241;48.452;9.216;2022-07-10T11:43:12;503.43;;;331.53;;
8407;SDS011;4241;48.452;9.216;2022-07-10T11:45:42;502.47;;;329.13;;
8407;SDS011;4241;48.452;9.216;2022-07-10T11:48:16;503.43;;;327.43;;
8407;SDS011;4241;48.452;9.216;2022-07-10T11:50:44;521.60;;;350.33;;
8407;SDS011;4241;48.452;9.216;2022-07-10T11:53:11;504.40;;;336.87;;
8407;SDS011;4241;48.452;9.216;2022-07-10T11:55:39;501.87;;;334.73;;
8407;SDS011;4241;48.452;9.216;2022-07-10T11:58:13;503.07;;;332.60;;
8407;SDS011;4241;48.452;9.216;2022-07-10T12:00:40;502.17;;;332.20;;
8407;SDS011;4241;48.452;9.216;2022-07-10T12:03:17;503.13;;;333.03;;
8407;SDS011;4241;48.452;9.216;2022-07-10T12:05:47;502.37;;;330.37;;
8407;SDS011;4241;48.452;9.216;2022-07-10T12:08:15;503.40;;;331.63;;
8407;SDS011;4241;48.452;9.216;2022-07-10T12:10:43;501.07;;;331.17;;
8407;SDS011;4241;48.452;9.216;2022-07-10T12:13:10;502.60;;;333.10;;
8407;SDS011;4241;48.452;9.216;2022-07-10T12:15:39;502.47;;;329.33;;
8407;SDS011;4241;48.452;9.216;2022-07-10T12:18:07;503.73;;;332.37;;
8407;SDS011;4241;48.452;9.216;2022-07-10T12:20:41;501.03;;;326.77;;
8407;SDS011;4241;48.452;9.216;2022-07-10T12:23:12;501.80;;;325.90;;
8407;SDS011;4241;48.452;9.216;2022-07-10T12:25:41;500.93;;;325.37;;
8407;SDS011;4241;48.452;9.216;2022-07-10T12:28:08;502.30;;;326.47;;
8407;SDS011;4241;48.452;9.216;2022-07-10T12:30:37;505.00;;;330.43;;
8407;SDS011;4241;48.452;9.216;2022-07-10T12:33:06;511.80;;;335.67;;
8407;SDS011;4241;48.452;9.216;2022-07-10T12:35:51;503.07;;;329.33;;
8407;SDS011;4241;48.452;9.216;2022-07-10T12:38:21;508.03;;;335.37;;
8407;SDS011;4241;48.452;9.216;2022-07-10T12:40:50;505.40;;;335.17;;
8407;SDS011;4241;48.452;9.216;2022-07-10T12:43:26;503.27;;;335.70;;
8407;SDS011;4241;48.452;9.216;2022-07-10T12:46:10;506.47;;;340.47;;
8407;SDS011;4241;48.452;9.216;2022-07-10T12:48:40;508.27;;;344.77;;
8407;SDS011;4241;48.452;9.216;2022-07-10T12:51:19;508.50;;;346.33;;
8407;SDS011;4241;48.452;9.216;2022-07-10T12:53:50;505.63;;;345.53;;
8407;SDS011;4241;48.452;9.216;2022-07-10T12:56:31;507.93;;;348.23;;
8407;SDS011;4241;48.452;9.216;2022-07-10T12:58:59;507.67;;;351.50;;
8407;SDS011;4241;48.452;9.216;2022-07-10T13:01:27;507.00;;;348.70;;
8407;SDS011;4241;48.452;9.216;2022-07-10T13:03:59;508.73;;;351.73;;
8407;SDS011;4241;48.452;9.216;2022-07-10T13:06:30;510.30;;;354.00;;
8407;SDS011;4241;48.452;9.216;2022-07-10T13:09:00;506.20;;;347.47;;
8407;SDS011;4241;48.452;9.216;2022-07-10T13:11:26;507.60;;;348.77;;
8407;SDS011;4241;48.452;9.216;2022-07-10T13:13:53;506.80;;;347.60;;
8407;SDS011;4241;48.452;9.216;2022-07-10T13:16:21;507.30;;;347.53;;
8407;SDS011;4241;48.452;9.216;2022-07-10T13:18:48;506.23;;;345.33;;
8407;SDS011;4241;48.452;9.216;2022-07-10T13:21:15;506.17;;;343.30;;
8407;SDS011;4241;48.452;9.216;2022-07-10T13:23:42;506.07;;;340.20;;
8407;SDS011;4241;48.452;9.216;2022-07-10T13:26:10;507.77;;;344.70;;
8407;SDS011;4241;48.452;9.216;2022-07-10T13:28:37;510.00;;;342.93;;
8407;SDS011;4241;48.452;9.216;2022-07-10T13:31:04;531.43;;;365.60;;
8407;SDS011;4241;48.452;9.216;2022-07-10T13:33:33;506.03;;;341.70;;
8407;SDS011;4241;48.452;9.216;2022-07-10T13:36:00;505.93;;;342.10;;
8407;SDS011;4241;48.452;9.216;2022-07-10T13:38:28;509.13;;;345.73;;
8407;SDS011;4241;48.452;9.216;2022-07-10T13:40:55;506.97;;;343.13;;
8407;SDS011;4241;48.452;9.216;2022-07-10T13:43:24;503.80;;;336.83;;
8407;SDS011;4241;48.452;9.216;2022-07-10T13:45:56;505.77;;;333.83;;
8407;SDS011;4241;48.452;9.216;2022-07-10T13:48:23;511.53;;;339.73;;
8407;SDS011;4241;48.452;9.216;2022-07-10T13:50:51;504.40;;;326.63;;
8407;SDS011;4241;48.452;9.216;2022-07-10T13:53:18;502.67;;;325.23;;
8407;SDS011;4241;48.452;9.216;2022-07-10T13:55:46;503.27;;;324.20;;
8407;SDS011;4241;48.452;9.216;2022-07-10T13:58:13;504.90;;;328.07;;
8407;SDS011;4241;48.452;9.216;2022-07-10T14:00:42;504.97;;;320.77;;
8407;SDS011;4241;48.452;9.216;2022-07-10T14:03:09;500.73;;;324.03;;
8407;SDS011;4241;48.452;9.216;2022-07-10T14:05:36;505.60;;;329.87;;
8407;SDS011;4241;48.452;9.216;2022-07-10T14:08:03;504.90;;;329.87;;
8407;SDS011;4241;48.452;9.216;2022-07-10T14:10:30;505.10;;;331.93;;
8407;SDS011;4241;48.452;9.216;2022-07-10T14:12:57;503.87;;;328.70;;
8407;SDS011;4241;48.452;9.216;2022-07-10T14:15:25;504.07;;;333.70;;
8407;SDS011;4241;48.452;9.216;2022-07-10T14:17:53;504.93;;;336.53;;
8407;SDS011;4241;48.452;9.216;2022-07-10T14:20:21;503.10;;;329.60;;
8407;SDS011;4241;48.452;9.216;2022-07-10T14:22:47;505.47;;;337.13;;
8407;SDS011;4241;48.452;9.216;2022-07-10T14:25:14;506.87;;;338.07;;
8407;SDS011;4241;48.452;9.216;2022-07-10T14:27:42;504.27;;;333.27;;
8407;SDS011;4241;48.452;9.216;2022-07-10T14:30:09;504.60;;;332.93;;
8407;SDS011;4241;48.452;9.216;2022-07-10T14:32:36;504.87;;;332.73;;
8407;SDS011;4241;48.452;9.216;2022-07-10T14:35:05;503.37;;;330.70;;
8407;SDS011;4241;48.452;9.216;2022-07-10T14:37:33;503.63;;;326.93;;
8407;SDS011;4241;48.452;9.216;2022-07-10T14:40:00;505.30;;;334.13;;
8407;SDS011;4241;48.452;9.216;2022-07-10T14:42:27;502.13;;;332.00;;
8407;SDS011;4241;48.452;9.216;2022-07-10T14:44:54;505.03;;;336.57;;